Ben-my-chree — MXLG6 — position and weather

sailwx.info

Track history (hours):
 
Tides and Currents Weather Stations Pressure Air Temp Water Temp Dewpoint Dewpoint Depression Visibility Wind Speed Wind Dir Waves Ship Positions

Ben-my-chree

Operator: The Isle of Man Steam Packet Co Ltd

Last reported at 2019-Aug-24 05:14 UTC. Time now 2019-Aug-24 06:44 UTC.
Position N 54°09' W 004°28'.

Length 125 m; draft 5 m.

Type: Ship. MMSI: 234983000.

Date/timePositionNaut miles runAvg speedWind from/ knotsBaromVisibWave heightAir tempDewpointWater temp
2019-Aug-24 05:14N 54°09' W 004°28'1 3.6
2019-Aug-24 05:00N 54°09' W 004°27'5 9.5
2019-Aug-24 04:30N 54°08' W 004°19'917.5
2019-Aug-24 04:00N 54°04' W 004°06'917.2
2019-Aug-24 03:31N 54°01' W 003°52'917.2
2019-Aug-24 03:00N 53°58' W 003°38'816.7
2019-Aug-24 02:30N 53°56' W 003°25'816.6
2019-Aug-24 02:00N 53°56' W 003°11'816.2
2019-Aug-24 01:30N 53°60' W 002°59'3 5.3
2019-Aug-24 00:55N 54°02' W 002°55'0 0.0
2019-Aug-23 22:33N 54°02' W 002°55'0 0.2
2019-Aug-23 22:30N 54°02' W 002°55'510.5
2019-Aug-23 22:00N 53°58' W 003°01'816.6
2019-Aug-23 21:30N 53°55' W 003°14'816.8
2019-Aug-23 21:00N 53°56' W 003°29'816.4
2019-Aug-23 20:30N 53°59' W 003°42'816.7
2019-Aug-23 20:00N 54°01' W 003°55'916.4
2019-Aug-23 19:26N 54°05' W 004°10'716.6
2019-Aug-23 19:00N 54°07' W 004°21'4 3.9
2019-Aug-23 17:54N 54°09' W 004°28'0 0.0
2019-Aug-23 17:29N 54°09' W 004°28'0 0.1
2019-Aug-23 17:00N 54°09' W 004°28'613.2
2019-Aug-23 16:30N 54°07' W 004°17'817.1
2019-Aug-23 16:00N 54°04' W 004°04'816.9
2019-Aug-23 15:30N 54°01' W 003°51'1016.9
2019-Aug-23 14:57N 53°57' W 003°36'716.3
2019-Aug-23 14:30N 53°55' W 003°24'815.9
2019-Aug-23 14:00N 53°56' W 003°11'815.4
2019-Aug-23 13:30N 53°60' W 002°59'4 4.1
2019-Aug-23 12:39N 54°02' W 002°55'0 0.0
2019-Aug-23 12:25N 54°02' W 002°55'0 0.0
2019-Aug-23 11:57N 54°02' W 002°55'0 0.0
2019-Aug-23 11:30N 54°02' W 002°55'0 0.1
2019-Aug-23 10:49N 54°02' W 002°55'2 7.7
2019-Aug-23 10:31N 54°01' W 002°58'816.9
2019-Aug-23 10:01N 53°56' W 003°10'917.5
2019-Aug-23 09:31N 53°55' W 003°25'816.8
2019-Aug-23 09:00N 53°58' W 003°39'916.9
2019-Aug-23 08:28N 54°01' W 003°53'816.6
2019-Aug-23 08:00N 54°04' W 004°05'816.6
2019-Aug-23 07:31N 54°07' W 004°18'611.9
2019-Aug-23 06:59N 54°09' W 004°28'0 0.0
2019-Aug-23 06:20N 54°09' W 004°28'0 0.0
2019-Aug-23 05:53N 54°09' W 004°28'0 0.0
2019-Aug-23 05:14N 54°09' W 004°28'0 0.0
2019-Aug-23 05:00N 54°09' W 004°28'510.7
2019-Aug-23 04:30N 54°08' W 004°19'917.2
2019-Aug-23 04:00N 54°04' W 004°06'816.8
2019-Aug-23 03:30N 54°01' W 003°53'816.5
2019-Aug-23 03:00N 53°58' W 003°40'816.5
2019-Aug-23 02:30N 53°56' W 003°26'816.2
2019-Aug-23 02:01N 53°56' W 003°13'815.4
2019-Aug-23 01:31N 53°59' W 003°01'5 6.9
2019-Aug-23 00:50N 54°02' W 002°55'0 0.0
2019-Aug-22 22:22N 54°02' W 002°55'410.1
2019-Aug-22 22:00N 53°60' W 002°60'817.0
2019-Aug-22 21:30N 53°55' W 003°12'917.3
2019-Aug-22 21:00N 53°55' W 003°27'917.2
2019-Aug-22 20:29N 53°58' W 003°41'817.0
2019-Aug-22 20:00N 54°01' W 003°54'816.8
2019-Aug-22 19:30N 54°04' W 004°07'816.8
2019-Aug-22 19:00N 54°07' W 004°21'5 8.4
2019-Aug-22 18:28N 54°09' W 004°28'0 0.0
2019-Aug-22 17:46N 54°09' W 004°28'0 0.0
2019-Aug-22 17:16N 54°09' W 004°28'1 3.8
2019-Aug-22 17:00N 54°09' W 004°27'917.0
2019-Aug-22 16:30N 54°06' W 004°13'917.4
2019-Aug-22 16:00N 54°03' W 003°60'817.0
2019-Aug-22 15:30N 53°60' W 003°46'1016.8
2019-Aug-22 14:55N 53°56' W 003°30'715.9
2019-Aug-22 14:27N 53°56' W 003°18'715.2
2019-Aug-22 14:01N 53°57' W 003°06'714.6
2019-Aug-22 13:31N 54°01' W 002°57'1 0.8
2019-Aug-22 11:59N 54°02' W 002°55'0 0.0
2019-Aug-22 11:22N 54°02' W 002°55'0 0.2
2019-Aug-22 10:52N 54°02' W 002°55'411.6
2019-Aug-22 10:30N 53°59' W 003°00'917.4
2019-Aug-22 10:00N 53°55' W 003°13'917.7
2019-Aug-22 09:30N 53°55' W 003°28'917.6
2019-Aug-22 09:00N 53°59' W 003°42'917.3
2019-Aug-22 08:30N 54°01' W 003°56'917.2
2019-Aug-22 08:00N 54°05' W 004°10'917.3
2019-Aug-22 07:30N 54°08' W 004°23'3 5.2
2019-Aug-22 06:56N 54°09' W 004°28'0 0.0
2019-Aug-22 05:10N 54°09' W 004°28'1 5.5
2019-Aug-22 05:00N 54°09' W 004°27'612.7
2019-Aug-22 04:30N 54°08' W 004°16'917.8
2019-Aug-22 04:00N 54°04' W 004°03'917.4
2019-Aug-22 03:31N 54°00' W 003°49'917.0
2019-Aug-22 02:57N 53°57' W 003°34'716.5
2019-Aug-22 02:30N 53°56' W 003°22'816.1
2019-Aug-22 02:01N 53°56' W 003°08'715.0
2019-Aug-22 01:31N 54°01' W 002°58'2 1.3
2019-Aug-21 23:41N 54°02' W 002°55'0 0.1
2019-Aug-21 22:29N 54°02' W 002°55'713.7
2019-Aug-21 22:01N 53°58' W 003°03'917.6
2019-Aug-21 21:30N 53°55' W 003°18'917.9
2019-Aug-21 21:00N 53°55' W 003°33'917.6
2019-Aug-21 20:30N 53°55' W 003°48'917.1
2019-Aug-21 20:00N 53°55' W 004°02'816.0
2019-Aug-21 19:30N 54°01' W 004°13'815.8
2019-Aug-21 19:00N 54°06' W 004°22'5 9.1
2019-Aug-21 18:30N 54°09' W 004°28'0 0.0
2019-Aug-21 18:00N 54°09' W 004°28'0 0.0
2019-Aug-21 17:28N 54°09' W 004°28'0 0.0
2019-Aug-21 16:58N 54°09' W 004°28'3 5.8
2019-Aug-21 16:30N 54°09' W 004°24'917.6
2019-Aug-21 16:00N 54°05' W 004°10'917.2
2019-Aug-21 15:30N 54°02' W 003°56'1117.2
2019-Aug-21 14:53N 53°58' W 003°39'616.9
2019-Aug-21 14:30N 53°56' W 003°29'816.7
2019-Aug-21 14:00N 53°56' W 003°15'815.7
2019-Aug-21 13:30N 53°58' W 003°02'6 2.5
2019-Aug-21 11:12N 54°02' W 002°55'0 0.0
2019-Aug-21 10:58N 54°02' W 002°55'0 0.5
2019-Aug-21 10:30N 54°02' W 002°55'815.2
2019-Aug-21 10:00N 53°57' W 003°05'917.9
2019-Aug-21 09:30N 53°56' W 003°20'917.3
2019-Aug-21 09:00N 53°57' W 003°35'917.2
2019-Aug-21 08:30N 53°60' W 003°48'817.0
2019-Aug-21 08:00N 54°03' W 004°02'816.8
2019-Aug-21 07:30N 54°06' W 004°15'816.1
2019-Aug-21 07:00N 54°09' W 004°28'0 0.1
2019-Aug-21 05:23N 54°09' W 004°28'2 5.4
2019-Aug-21 04:56N 54°09' W 004°24'3 6.7
2019-Aug-21 04:30N 54°08' W 004°20'917.4
2019-Aug-21 04:01N 54°04' W 004°06'917.6
2019-Aug-21 03:30N 54°01' W 003°52'917.6
2019-Aug-21 03:00N 53°58' W 003°38'816.9
2019-Aug-21 02:30N 53°56' W 003°24'817.0
2019-Aug-21 02:01N 53°56' W 003°10'714.6
2019-Aug-21 01:31N 53°60' W 002°59'3 1.0
2019-Aug-20 22:19N 54°02' W 002°55'3 9.9
2019-Aug-20 22:00N 54°00' W 002°59'815.6
2019-Aug-20 21:30N 53°56' W 003°10'917.9
2019-Aug-20 21:00N 53°55' W 003°25'917.6
2019-Aug-20 20:30N 53°58' W 003°39'1017.4
2019-Aug-20 19:57N 54°01' W 003°55'817.1
2019-Aug-20 19:30N 54°04' W 004°07'816.9
2019-Aug-20 19:00N 54°07' W 004°20'5 2.1
2019-Aug-20 16:44N 54°09' W 004°28'314.5
2019-Aug-20 16:30N 54°08' W 004°23'917.9
2019-Aug-20 16:00N 54°05' W 004°08'917.7
2019-Aug-20 15:30N 54°02' W 003°55'1717.6
2019-Aug-20 14:34N 53°55' W 003°29'116.9
2019-Aug-20 14:31N 53°55' W 003°27'917.3
2019-Aug-20 14:01N 53°56' W 003°12'816.3
2019-Aug-20 13:31N 53°59' W 002°60'4 7.5
2019-Aug-20 12:59N 54°02' W 002°55'0 0.0
2019-Aug-20 12:21N 54°02' W 002°55'0 0.0
2019-Aug-20 11:33N 54°02' W 002°55'0 0.0
2019-Aug-20 11:03N 54°02' W 002°55'0 2.4
2019-Aug-20 11:00N 54°02' W 002°55'815.6
2019-Aug-20 10:31N 53°57' W 003°05'918.8
2019-Aug-20 10:00N 53°55' W 003°21'918.5
2019-Aug-20 09:30N 53°57' W 003°36'1018.3
2019-Aug-20 08:59N 54°01' W 003°52'818.0
2019-Aug-20 08:30N 54°04' W 004°05'917.7
2019-Aug-20 08:00N 54°07' W 004°19'6 1.9
2019-Aug-20 05:03N 54°09' W 004°28'0 0.0
2019-Aug-20 05:00N 54°09' W 004°28'4 8.9
2019-Aug-20 04:30N 54°08' W 004°21'917.2
2019-Aug-20 04:00N 54°04' W 004°08'917.4
2019-Aug-20 03:30N 54°01' W 003°54'917.4
2019-Aug-20 03:00N 53°58' W 003°40'917.1
2019-Aug-20 02:30N 53°56' W 003°26'917.2
2019-Aug-20 02:00N 53°56' W 003°11'816.3
2019-Aug-20 01:30N 53°60' W 002°59'3 2.0
2019-Aug-19 23:47N 54°02' W 002°55'0 0.0
2019-Aug-19 23:23N 54°02' W 002°55'0 0.1
2019-Aug-19 22:05N 54°02' W 002°55'0 5.4
2019-Aug-19 22:01N 54°02' W 002°56'918.0
2019-Aug-19 21:31N 53°56' W 003°08'918.6
2019-Aug-19 21:01N 53°56' W 003°23'917.8
2019-Aug-19 20:30N 53°58' W 003°38'917.8
2019-Aug-19 20:01N 54°01' W 003°52'917.5
2019-Aug-19 19:30N 54°04' W 004°07'917.3
2019-Aug-19 19:00N 54°07' W 004°20'5 4.9
2019-Aug-19 18:00N 54°09' W 004°28'0 0.1
2019-Aug-19 16:49N 54°09' W 004°28'514.9
2019-Aug-19 16:30N 54°08' W 004°20'917.2
2019-Aug-19 16:00N 54°05' W 004°07'917.3
2019-Aug-19 15:30N 54°01' W 003°53'1617.2
2019-Aug-19 14:36N 53°56' W 003°29'217.2
2019-Aug-19 14:30N 53°56' W 003°25'816.8
2019-Aug-19 14:00N 53°56' W 003°12'816.3
2019-Aug-19 13:30N 53°60' W 002°59'4 5.8
2019-Aug-19 12:54N 54°02' W 002°55'0 0.0
2019-Aug-19 11:54N 54°02' W 002°55'0 0.0
2019-Aug-19 11:12N 54°02' W 002°55'0 0.7
2019-Aug-19 11:01N 54°02' W 002°55'917.3
2019-Aug-19 10:30N 53°57' W 003°07'1019.3
2019-Aug-19 10:00N 53°55' W 003°23'918.4
2019-Aug-19 09:30N 53°58' W 003°38'1218.4
2019-Aug-19 08:52N 54°02' W 003°57'718.2
2019-Aug-19 08:30N 54°04' W 004°07'917.9
2019-Aug-19 08:00N 54°07' W 004°22'4 3.7
2019-Aug-19 06:53N 54°09' W 004°28'0 0.0
2019-Aug-19 06:23N 54°09' W 004°28'0 0.0
2019-Aug-19 05:48N 54°09' W 004°28'0 0.0
2019-Aug-19 05:23N 54°09' W 004°28'0 0.0
2019-Aug-19 04:53N 54°09' W 004°28'2 5.8
2019-Aug-19 04:30N 54°09' W 004°25'917.4
2019-Aug-19 04:00N 54°05' W 004°11'917.4
2019-Aug-19 03:30N 54°02' W 003°58'917.4
2019-Aug-19 03:00N 53°59' W 003°43'1017.4
2019-Aug-19 02:27N 53°56' W 003°28'817.5
2019-Aug-19 02:00N 53°56' W 003°15'816.9
2019-Aug-19 01:30N 53°58' W 003°01'5 2.1
2019-Aug-18 23:02N 54°02' W 002°55'0 0.0
2019-Aug-18 22:53N 54°02' W 002°55'0 0.1
2019-Aug-18 22:14N 54°02' W 002°55'211.3
2019-Aug-18 22:00N 54°00' W 002°58'1019.5
2019-Aug-18 21:31N 53°55' W 003°12'918.9
2019-Aug-18 21:00N 53°55' W 003°28'918.2
2019-Aug-18 20:30N 53°59' W 003°43'918.0
2019-Aug-18 20:00N 54°02' W 003°57'917.7
2019-Aug-18 19:30N 54°05' W 004°11'917.7
2019-Aug-18 19:00N 54°08' W 004°25'2 0.9
2019-Aug-18 17:00N 54°09' W 004°28'511.0
2019-Aug-18 16:30N 54°08' W 004°19'917.7
2019-Aug-18 16:01N 54°04' W 004°06'917.9
2019-Aug-18 15:30N 54°01' W 003°52'1517.2
2019-Aug-18 14:39N 53°56' W 003°29'316.7
2019-Aug-18 14:30N 53°56' W 003°24'816.7
2019-Aug-18 14:00N 53°56' W 003°10'816.7
2019-Aug-18 13:30N 54°00' W 002°58'2 3.8
2019-Aug-18 12:51N 54°02' W 002°55'0 0.1
2019-Aug-18 11:00N 54°02' W 002°55'816.6
2019-Aug-18 10:31N 53°57' W 003°06'1019.2
2019-Aug-18 10:01N 53°56' W 003°22'918.3
2019-Aug-18 09:30N 53°58' W 003°37'918.3
2019-Aug-18 09:00N 54°01' W 003°52'918.2
2019-Aug-18 08:30N 54°04' W 004°07'917.9
2019-Aug-18 08:01N 54°07' W 004°21'5 3.0
2019-Aug-18 06:27N 54°09' W 004°28'2 5.2
2019-Aug-18 06:00N 54°07' W 004°27'816.5
2019-Aug-18 05:30N 54°02' W 004°39'2813.9
2019-Aug-18 03:31N 54°23' W 005°09'016.8
2019-Aug-18 03:30N 54°23' W 005°09'815.7
2019-Aug-18 03:00N 54°30' W 005°16'815.2
2019-Aug-18 02:30N 54°37' W 005°22'714.6
2019-Aug-18 02:00N 54°43' W 005°30'715.0
2019-Aug-18 01:30N 54°42' W 005°42'815.4
2019-Aug-18 01:00N 54°38' W 005°53'1 2.4
2019-Aug-18 00:30N 54°37' W 005°55'0 0.0
2019-Aug-18 00:00N 54°37' W 005°55'1 1.5
2019-Aug-17 23:30N 54°37' W 005°54'612.8
2019-Aug-17 23:00N 54°42' W 005°46'816.2
2019-Aug-17 22:30N 54°43' W 005°32'714.4
2019-Aug-17 22:00N 54°37' W 005°24'815.7
2019-Aug-17 21:30N 54°30' W 005°17'815.8
2019-Aug-17 21:00N 54°23' W 005°11'816.2
2019-Aug-17 20:30N 54°16' W 005°04'1716.1
2019-Aug-17 19:25N 54°02' W 004°47'615.0
2019-Aug-17 19:00N 54°03' W 004°37'814.2
2019-Aug-17 18:26N 54°09' W 004°28'0 0.1
2019-Aug-17 16:36N 54°09' W 004°28'1 8.2
2019-Aug-17 16:30N 54°09' W 004°27'917.4
2019-Aug-17 16:00N 54°06' W 004°13'918.0
2019-Aug-17 15:30N 54°03' W 003°59'917.7
2019-Aug-17 15:00N 53°59' W 003°45'1017.8
2019-Aug-17 14:26N 53°56' W 003°29'817.6
2019-Aug-17 14:00N 53°56' W 003°16'817.4
2019-Aug-17 13:31N 53°58' W 003°02'6 7.6
2019-Aug-17 12:45N 54°02' W 002°55'0 0.0
2019-Aug-17 10:21N 54°02' W 002°55'3 8.2
2019-Aug-17 10:01N 54°00' W 002°59'1019.8
2019-Aug-17 09:31N 53°55' W 003°13'1019.1
2019-Aug-17 09:01N 53°56' W 003°30'918.5
2019-Aug-17 08:30N 53°59' W 003°45'1018.3
2019-Aug-17 07:59N 54°02' W 003°60'818.1
2019-Aug-17 07:31N 54°05' W 004°13'917.6
2019-Aug-17 06:59N 54°09' W 004°28'0 0.1
2019-Aug-17 04:48N 54°09' W 004°28'3 9.9
2019-Aug-17 04:30N 54°08' W 004°23'917.1
2019-Aug-17 04:00N 54°05' W 004°10'917.4
2019-Aug-17 03:30N 54°01' W 003°56'1017.7
2019-Aug-17 02:56N 53°58' W 003°40'817.8
2019-Aug-17 02:30N 53°56' W 003°27'918.0
2019-Aug-17 02:01N 53°56' W 003°13'918.1
2019-Aug-17 01:31N 54°00' W 002°59'3 2.1
2019-Aug-17 00:01N 54°02' W 002°55'0 0.0
2019-Aug-16 22:27N 54°02' W 002°55'714.7
2019-Aug-16 22:00N 53°58' W 003°03'1019.6
2019-Aug-16 21:31N 53°55' W 003°19'918.8
2019-Aug-16 21:00N 53°57' W 003°35'918.6
2019-Aug-16 20:30N 54°00' W 003°50'918.3
2019-Aug-16 20:00N 54°04' W 004°04'918.0
2019-Aug-16 19:31N 54°07' W 004°18'6 8.8
2019-Aug-16 18:49N 54°09' W 004°28'0 0.0
2019-Aug-16 17:02N 54°09' W 004°28'0 0.8
2019-Aug-16 17:00N 54°09' W 004°28'815.5
2019-Aug-16 16:30N 54°07' W 004°15'918.1
2019-Aug-16 16:00N 54°03' W 004°01'918.0
2019-Aug-16 15:30N 53°60' W 003°47'918.0
2019-Aug-16 15:00N 53°56' W 003°33'1018.5
2019-Aug-16 14:28N 53°56' W 003°16'918.8
2019-Aug-16 14:00N 53°58' W 003°02'6 4.0
2019-Aug-16 12:35N 54°02' W 002°55'0 0.0
2019-Aug-16 12:11N 54°02' W 002°55'0 0.0
2019-Aug-16 11:05N 54°02' W 002°55'0 0.5
2019-Aug-16 10:58N 54°02' W 002°55'714.4
2019-Aug-16 10:30N 53°58' W 003°04'918.4
2019-Aug-16 10:00N 53°55' W 003°19'917.8
2019-Aug-16 09:30N 53°57' W 003°34'917.6
2019-Aug-16 09:00N 53°60' W 003°48'917.6
2019-Aug-16 08:30N 54°03' W 004°02'917.2
2019-Aug-16 08:00N 54°06' W 004°15'816.1
2019-Aug-16 07:30N 54°09' W 004°28'0 0.0
2019-Aug-16 05:05N 54°09' W 004°28'0 0.1
2019-Aug-16 04:43N 54°09' W 004°28'311.9
2019-Aug-16 04:30N 54°08' W 004°24'917.8
2019-Aug-16 04:00N 54°05' W 004°10'918.2
2019-Aug-16 03:30N 54°02' W 003°56'918.0
2019-Aug-16 03:00N 53°59' W 003°41'918.0
2019-Aug-16 02:30N 53°56' W 003°27'918.1
2019-Aug-16 02:00N 53°56' W 003°11'919.0
2019-Aug-16 01:31N 54°01' W 002°58'2 3.2
2019-Aug-16 00:53N 54°02' W 002°55'0 0.0
2019-Aug-15 23:08N 54°02' W 002°55'0 0.0
2019-Aug-15 22:30N 54°02' W 002°55'714.6
2019-Aug-15 22:00N 53°57' W 003°04'1019.3
2019-Aug-15 21:31N 53°55' W 003°20'918.6
2019-Aug-15 21:00N 53°57' W 003°36'1018.4
2019-Aug-15 20:29N 54°01' W 003°51'918.4
2019-Aug-15 20:00N 54°04' W 004°05'917.9
2019-Aug-15 19:31N 54°07' W 004°19'6 2.3
2019-Aug-15 17:03N 54°09' W 004°28'0 8.9
2019-Aug-15 17:01N 54°09' W 004°28'917.0
2019-Aug-15 16:30N 54°06' W 004°14'917.7
2019-Aug-15 16:00N 54°03' W 003°60'917.7
2019-Aug-15 15:30N 53°59' W 003°46'1117.4
2019-Aug-15 14:52N 53°56' W 003°28'718.1
2019-Aug-15 14:30N 53°56' W 003°17'918.3
2019-Aug-15 14:00N 53°58' W 003°02'610.7
2019-Aug-15 13:28N 54°02' W 002°55'0 0.0
2019-Aug-15 12:34N 54°02' W 002°55'0 0.0
2019-Aug-15 12:28N 54°02' W 002°55'0 0.0
2019-Aug-15 10:52N 54°02' W 002°55'410.8
2019-Aug-15 10:30N 53°59' W 002°60'918.8
2019-Aug-15 10:00N 53°55' W 003°14'918.4
2019-Aug-15 09:30N 53°56' W 003°30'918.4
2019-Aug-15 09:00N 53°59' W 003°44'918.4
2019-Aug-15 08:30N 54°03' W 003°59'918.6
2019-Aug-15 08:00N 54°06' W 004°14'917.7
2019-Aug-15 07:30N 54°09' W 004°28'0 0.3
2019-Aug-15 06:43N 54°09' W 004°28'0 0.0
2019-Aug-15 04:49N 54°09' W 004°28'1 2.3
2019-Aug-15 04:30N 54°09' W 004°27'816.4
2019-Aug-15 04:00N 54°06' W 004°14'816.6
2019-Aug-15 03:30N 54°03' W 004°01'816.9
2019-Aug-15 03:00N 53°60' W 003°47'816.9
2019-Aug-15 02:30N 53°57' W 003°34'816.9
2019-Aug-15 02:01N 53°56' W 003°20'917.5
2019-Aug-15 01:31N 53°57' W 003°05'8 4.6
2019-Aug-14 23:51N 54°02' W 002°55'0 0.0
2019-Aug-14 23:12N 54°02' W 002°55'0 0.0
2019-Aug-14 21:50N 54°02' W 002°55'413.3
2019-Aug-14 21:30N 53°59' W 003°00'1019.9
2019-Aug-14 21:00N 53°55' W 003°16'1019.2
2019-Aug-14 20:30N 53°56' W 003°32'1018.9
2019-Aug-14 20:00N 53°60' W 003°47'918.7
2019-Aug-14 19:30N 54°03' W 004°02'918.5
2019-Aug-14 19:00N 54°06' W 004°16'714.6
2019-Aug-14 18:30N 54°09' W 004°28'0 0.0
2019-Aug-14 17:08N 54°09' W 004°28'0 0.7
2019-Aug-14 17:00N 54°09' W 004°28'714.4
2019-Aug-14 16:30N 54°07' W 004°16'918.0
2019-Aug-14 16:00N 54°04' W 004°02'918.3
2019-Aug-14 15:30N 54°00' W 003°48'1018.3
2019-Aug-14 14:58N 53°56' W 003°32'818.3
2019-Aug-14 14:31N 53°56' W 003°18'918.8
2019-Aug-14 14:01N 53°58' W 003°03'6 7.7
2019-Aug-14 13:13N 54°02' W 002°55'0 0.0
2019-Aug-14 12:55N 54°02' W 002°55'0 0.0
2019-Aug-14 11:43N 54°02' W 002°55'0 0.0
2019-Aug-14 11:28N 54°02' W 002°55'0 0.0
2019-Aug-14 10:36N 54°02' W 002°55'0 1.5
2019-Aug-14 10:30N 54°02' W 002°55'715.1
2019-Aug-14 10:00N 53°57' W 003°05'917.8
2019-Aug-14 09:30N 53°55' W 003°20'917.2
2019-Aug-14 09:00N 53°57' W 003°34'917.3
2019-Aug-14 08:30N 54°00' W 003°48'917.6
2019-Aug-14 08:00N 54°03' W 004°02'917.5
2019-Aug-14 07:30N 54°06' W 004°16'813.7
2019-Aug-14 06:56N 54°09' W 004°28'0 0.0
2019-Aug-14 05:58N 54°09' W 004°28'  
Track history (hours):
 
Tides and Currents Weather Stations Pressure Air Temp Water Temp Dewpoint Dewpoint Depression Visibility Wind Speed Wind Dir Waves Ship Positions

Ben-my-chree

Operator: The Isle of Man Steam Packet Co Ltd

Last reported at 2019-Aug-24 05:14 UTC. Time now 2019-Aug-24 06:44 UTC.
Position N 54°09' W 004°28'.

Length 125 m; draft 5 m.

Type: Ship. MMSI: 234983000.

Date/timePositionNaut miles runAvg speedWind from/ knotsBaromVisibWave heightAir tempDewpointWater temp
2019-Aug-24 05:14N 54°09' W 004°28'1 3.6
2019-Aug-24 05:00N 54°09' W 004°27'5 9.5
2019-Aug-24 04:30N 54°08' W 004°19'917.5
2019-Aug-24 04:00N 54°04' W 004°06'917.2
2019-Aug-24 03:31N 54°01' W 003°52'917.2
2019-Aug-24 03:00N 53°58' W 003°38'816.7
2019-Aug-24 02:30N 53°56' W 003°25'816.6
2019-Aug-24 02:00N 53°56' W 003°11'816.2
2019-Aug-24 01:30N 53°60' W 002°59'3 5.3
2019-Aug-24 00:55N 54°02' W 002°55'0 0.0
2019-Aug-23 22:33N 54°02' W 002°55'0 0.2
2019-Aug-23 22:30N 54°02' W 002°55'510.5
2019-Aug-23 22:00N 53°58' W 003°01'816.6
2019-Aug-23 21:30N 53°55' W 003°14'816.8
2019-Aug-23 21:00N 53°56' W 003°29'816.4
2019-Aug-23 20:30N 53°59' W 003°42'816.7
2019-Aug-23 20:00N 54°01' W 003°55'916.4
2019-Aug-23 19:26N 54°05' W 004°10'716.6
2019-Aug-23 19:00N 54°07' W 004°21'4 3.9
2019-Aug-23 17:54N 54°09' W 004°28'0 0.0
2019-Aug-23 17:29N 54°09' W 004°28'0 0.1
2019-Aug-23 17:00N 54°09' W 004°28'613.2
2019-Aug-23 16:30N 54°07' W 004°17'817.1
2019-Aug-23 16:00N 54°04' W 004°04'816.9
2019-Aug-23 15:30N 54°01' W 003°51'1016.9
2019-Aug-23 14:57N 53°57' W 003°36'716.3
2019-Aug-23 14:30N 53°55' W 003°24'815.9
2019-Aug-23 14:00N 53°56' W 003°11'815.4
2019-Aug-23 13:30N 53°60' W 002°59'4 4.1
2019-Aug-23 12:39N 54°02' W 002°55'0 0.0
2019-Aug-23 12:25N 54°02' W 002°55'0 0.0
2019-Aug-23 11:57N 54°02' W 002°55'0 0.0
2019-Aug-23 11:30N 54°02' W 002°55'0 0.1
2019-Aug-23 10:49N 54°02' W 002°55'2 7.7
2019-Aug-23 10:31N 54°01' W 002°58'816.9
2019-Aug-23 10:01N 53°56' W 003°10'917.5
2019-Aug-23 09:31N 53°55' W 003°25'816.8
2019-Aug-23 09:00N 53°58' W 003°39'916.9
2019-Aug-23 08:28N 54°01' W 003°53'816.6
2019-Aug-23 08:00N 54°04' W 004°05'816.6
2019-Aug-23 07:31N 54°07' W 004°18'611.9
2019-Aug-23 06:59N 54°09' W 004°28'0 0.0
2019-Aug-23 06:20N 54°09' W 004°28'0 0.0
2019-Aug-23 05:53N 54°09' W 004°28'0 0.0
2019-Aug-23 05:14N 54°09' W 004°28'0 0.0
2019-Aug-23 05:00N 54°09' W 004°28'510.7
2019-Aug-23 04:30N 54°08' W 004°19'917.2
2019-Aug-23 04:00N 54°04' W 004°06'816.8
2019-Aug-23 03:30N 54°01' W 003°53'816.5
2019-Aug-23 03:00N 53°58' W 003°40'816.5
2019-Aug-23 02:30N 53°56' W 003°26'816.2
2019-Aug-23 02:01N 53°56' W 003°13'815.4
2019-Aug-23 01:31N 53°59' W 003°01'5 6.9
2019-Aug-23 00:50N 54°02' W 002°55'0 0.0
2019-Aug-22 22:22N 54°02' W 002°55'410.1
2019-Aug-22 22:00N 53°60' W 002°60'817.0
2019-Aug-22 21:30N 53°55' W 003°12'917.3
2019-Aug-22 21:00N 53°55' W 003°27'917.2
2019-Aug-22 20:29N 53°58' W 003°41'817.0
2019-Aug-22 20:00N 54°01' W 003°54'816.8
2019-Aug-22 19:30N 54°04' W 004°07'816.8
2019-Aug-22 19:00N 54°07' W 004°21'5 8.4
2019-Aug-22 18:28N 54°09' W 004°28'0 0.0
2019-Aug-22 17:46N 54°09' W 004°28'0 0.0
2019-Aug-22 17:16N 54°09' W 004°28'1 3.8
2019-Aug-22 17:00N 54°09' W 004°27'917.0
2019-Aug-22 16:30N 54°06' W 004°13'917.4
2019-Aug-22 16:00N 54°03' W 003°60'817.0
2019-Aug-22 15:30N 53°60' W 003°46'1016.8
2019-Aug-22 14:55N 53°56' W 003°30'715.9
2019-Aug-22 14:27N 53°56' W 003°18'715.2
2019-Aug-22 14:01N 53°57' W 003°06'714.6
2019-Aug-22 13:31N 54°01' W 002°57'1 0.8
2019-Aug-22 11:59N 54°02' W 002°55'0 0.0
2019-Aug-22 11:22N 54°02' W 002°55'0 0.2
2019-Aug-22 10:52N 54°02' W 002°55'411.6
2019-Aug-22 10:30N 53°59' W 003°00'917.4
2019-Aug-22 10:00N 53°55' W 003°13'917.7
2019-Aug-22 09:30N 53°55' W 003°28'917.6
2019-Aug-22 09:00N 53°59' W 003°42'917.3
2019-Aug-22 08:30N 54°01' W 003°56'917.2
2019-Aug-22 08:00N 54°05' W 004°10'917.3
2019-Aug-22 07:30N 54°08' W 004°23'3 5.2
2019-Aug-22 06:56N 54°09' W 004°28'0 0.0
2019-Aug-22 05:10N 54°09' W 004°28'1 5.5
2019-Aug-22 05:00N 54°09' W 004°27'612.7
2019-Aug-22 04:30N 54°08' W 004°16'917.8
2019-Aug-22 04:00N 54°04' W 004°03'917.4
2019-Aug-22 03:31N 54°00' W 003°49'917.0
2019-Aug-22 02:57N 53°57' W 003°34'716.5
2019-Aug-22 02:30N 53°56' W 003°22'816.1
2019-Aug-22 02:01N 53°56' W 003°08'715.0
2019-Aug-22 01:31N 54°01' W 002°58'2 1.3
2019-Aug-21 23:41N 54°02' W 002°55'0 0.1
2019-Aug-21 22:29N 54°02' W 002°55'713.7
2019-Aug-21 22:01N 53°58' W 003°03'917.6
2019-Aug-21 21:30N 53°55' W 003°18'917.9
2019-Aug-21 21:00N 53°55' W 003°33'917.6
2019-Aug-21 20:30N 53°55' W 003°48'917.1
2019-Aug-21 20:00N 53°55' W 004°02'816.0
2019-Aug-21 19:30N 54°01' W 004°13'815.8
2019-Aug-21 19:00N 54°06' W 004°22'5 9.1
2019-Aug-21 18:30N 54°09' W 004°28'0 0.0
2019-Aug-21 18:00N 54°09' W 004°28'0 0.0
2019-Aug-21 17:28N 54°09' W 004°28'0 0.0
2019-Aug-21 16:58N 54°09' W 004°28'3 5.8
2019-Aug-21 16:30N 54°09' W 004°24'917.6
2019-Aug-21 16:00N 54°05' W 004°10'917.2
2019-Aug-21 15:30N 54°02' W 003°56'1117.2
2019-Aug-21 14:53N 53°58' W 003°39'616.9
2019-Aug-21 14:30N 53°56' W 003°29'816.7
2019-Aug-21 14:00N 53°56' W 003°15'815.7
2019-Aug-21 13:30N 53°58' W 003°02'6 2.5
2019-Aug-21 11:12N 54°02' W 002°55'0 0.0
2019-Aug-21 10:58N 54°02' W 002°55'0 0.5
2019-Aug-21 10:30N 54°02' W 002°55'815.2
2019-Aug-21 10:00N 53°57' W 003°05'917.9
2019-Aug-21 09:30N 53°56' W 003°20'917.3
2019-Aug-21 09:00N 53°57' W 003°35'917.2
2019-Aug-21 08:30N 53°60' W 003°48'817.0
2019-Aug-21 08:00N 54°03' W 004°02'816.8
2019-Aug-21 07:30N 54°06' W 004°15'816.1
2019-Aug-21 07:00N 54°09' W 004°28'0 0.1
2019-Aug-21 05:23N 54°09' W 004°28'2 5.4
2019-Aug-21 04:56N 54°09' W 004°24'3 6.7
2019-Aug-21 04:30N 54°08' W 004°20'917.4
2019-Aug-21 04:01N 54°04' W 004°06'917.6
2019-Aug-21 03:30N 54°01' W 003°52'917.6
2019-Aug-21 03:00N 53°58' W 003°38'816.9
2019-Aug-21 02:30N 53°56' W 003°24'817.0
2019-Aug-21 02:01N 53°56' W 003°10'714.6
2019-Aug-21 01:31N 53°60' W 002°59'3 1.0
2019-Aug-20 22:19N 54°02' W 002°55'3 9.9
2019-Aug-20 22:00N 54°00' W 002°59'815.6
2019-Aug-20 21:30N 53°56' W 003°10'917.9
2019-Aug-20 21:00N 53°55' W 003°25'917.6
2019-Aug-20 20:30N 53°58' W 003°39'1017.4
2019-Aug-20 19:57N 54°01' W 003°55'817.1
2019-Aug-20 19:30N 54°04' W 004°07'816.9
2019-Aug-20 19:00N 54°07' W 004°20'5 2.1
2019-Aug-20 16:44N 54°09' W 004°28'314.5
2019-Aug-20 16:30N 54°08' W 004°23'917.9
2019-Aug-20 16:00N 54°05' W 004°08'917.7
2019-Aug-20 15:30N 54°02' W 003°55'1717.6
2019-Aug-20 14:34N 53°55' W 003°29'116.9
2019-Aug-20 14:31N 53°55' W 003°27'917.3
2019-Aug-20 14:01N 53°56' W 003°12'816.3
2019-Aug-20 13:31N 53°59' W 002°60'4 7.5
2019-Aug-20 12:59N 54°02' W 002°55'0 0.0
2019-Aug-20 12:21N 54°02' W 002°55'0 0.0
2019-Aug-20 11:33N 54°02' W 002°55'0 0.0
2019-Aug-20 11:03N 54°02' W 002°55'0 2.4
2019-Aug-20 11:00N 54°02' W 002°55'815.6
2019-Aug-20 10:31N 53°57' W 003°05'918.8
2019-Aug-20 10:00N 53°55' W 003°21'918.5
2019-Aug-20 09:30N 53°57' W 003°36'1018.3
2019-Aug-20 08:59N 54°01' W 003°52'818.0
2019-Aug-20 08:30N 54°04' W 004°05'917.7
2019-Aug-20 08:00N 54°07' W 004°19'6 1.9
2019-Aug-20 05:03N 54°09' W 004°28'0 0.0
2019-Aug-20 05:00N 54°09' W 004°28'4 8.9
2019-Aug-20 04:30N 54°08' W 004°21'917.2
2019-Aug-20 04:00N 54°04' W 004°08'917.4
2019-Aug-20 03:30N 54°01' W 003°54'917.4
2019-Aug-20 03:00N 53°58' W 003°40'917.1
2019-Aug-20 02:30N 53°56' W 003°26'917.2
2019-Aug-20 02:00N 53°56' W 003°11'816.3
2019-Aug-20 01:30N 53°60' W 002°59'3 2.0
2019-Aug-19 23:47N 54°02' W 002°55'0 0.0
2019-Aug-19 23:23N 54°02' W 002°55'0 0.1
2019-Aug-19 22:05N 54°02' W 002°55'0 5.4
2019-Aug-19 22:01N 54°02' W 002°56'918.0
2019-Aug-19 21:31N 53°56' W 003°08'918.6
2019-Aug-19 21:01N 53°56' W 003°23'917.8
2019-Aug-19 20:30N 53°58' W 003°38'917.8
2019-Aug-19 20:01N 54°01' W 003°52'917.5
2019-Aug-19 19:30N 54°04' W 004°07'917.3
2019-Aug-19 19:00N 54°07' W 004°20'5 4.9
2019-Aug-19 18:00N 54°09' W 004°28'0 0.1
2019-Aug-19 16:49N 54°09' W 004°28'514.9
2019-Aug-19 16:30N 54°08' W 004°20'917.2
2019-Aug-19 16:00N 54°05' W 004°07'917.3
2019-Aug-19 15:30N 54°01' W 003°53'1617.2
2019-Aug-19 14:36N 53°56' W 003°29'217.2
2019-Aug-19 14:30N 53°56' W 003°25'816.8
2019-Aug-19 14:00N 53°56' W 003°12'816.3
2019-Aug-19 13:30N 53°60' W 002°59'4 5.8
2019-Aug-19 12:54N 54°02' W 002°55'0 0.0
2019-Aug-19 11:54N 54°02' W 002°55'0 0.0
2019-Aug-19 11:12N 54°02' W 002°55'0 0.7
2019-Aug-19 11:01N 54°02' W 002°55'917.3
2019-Aug-19 10:30N 53°57' W 003°07'1019.3
2019-Aug-19 10:00N 53°55' W 003°23'918.4
2019-Aug-19 09:30N 53°58' W 003°38'1218.4
2019-Aug-19 08:52N 54°02' W 003°57'718.2
2019-Aug-19 08:30N 54°04' W 004°07'917.9
2019-Aug-19 08:00N 54°07' W 004°22'4 3.7
2019-Aug-19 06:53N 54°09' W 004°28'0 0.0
2019-Aug-19 06:23N 54°09' W 004°28'0 0.0
2019-Aug-19 05:48N 54°09' W 004°28'0 0.0
2019-Aug-19 05:23N 54°09' W 004°28'0 0.0
2019-Aug-19 04:53N 54°09' W 004°28'2 5.8
2019-Aug-19 04:30N 54°09' W 004°25'917.4
2019-Aug-19 04:00N 54°05' W 004°11'917.4
2019-Aug-19 03:30N 54°02' W 003°58'917.4
2019-Aug-19 03:00N 53°59' W 003°43'1017.4
2019-Aug-19 02:27N 53°56' W 003°28'817.5
2019-Aug-19 02:00N 53°56' W 003°15'816.9
2019-Aug-19 01:30N 53°58' W 003°01'5 2.1
2019-Aug-18 23:02N 54°02' W 002°55'0 0.0
2019-Aug-18 22:53N 54°02' W 002°55'0 0.1
2019-Aug-18 22:14N 54°02' W 002°55'211.3
2019-Aug-18 22:00N 54°00' W 002°58'1019.5
2019-Aug-18 21:31N 53°55' W 003°12'918.9
2019-Aug-18 21:00N 53°55' W 003°28'918.2
2019-Aug-18 20:30N 53°59' W 003°43'918.0
2019-Aug-18 20:00N 54°02' W 003°57'917.7
2019-Aug-18 19:30N 54°05' W 004°11'917.7
2019-Aug-18 19:00N 54°08' W 004°25'2 0.9
2019-Aug-18 17:00N 54°09' W 004°28'511.0
2019-Aug-18 16:30N 54°08' W 004°19'917.7
2019-Aug-18 16:01N 54°04' W 004°06'917.9
2019-Aug-18 15:30N 54°01' W 003°52'1517.2
2019-Aug-18 14:39N 53°56' W 003°29'316.7
2019-Aug-18 14:30N 53°56' W 003°24'816.7
2019-Aug-18 14:00N 53°56' W 003°10'816.7
2019-Aug-18 13:30N 54°00' W 002°58'2 3.8
2019-Aug-18 12:51N 54°02' W 002°55'0 0.1
2019-Aug-18 11:00N 54°02' W 002°55'816.6
2019-Aug-18 10:31N 53°57' W 003°06'1019.2
2019-Aug-18 10:01N 53°56' W 003°22'918.3
2019-Aug-18 09:30N 53°58' W 003°37'918.3
2019-Aug-18 09:00N 54°01' W 003°52'918.2
2019-Aug-18 08:30N 54°04' W 004°07'917.9
2019-Aug-18 08:01N 54°07' W 004°21'5 3.0
2019-Aug-18 06:27N 54°09' W 004°28'2 5.2
2019-Aug-18 06:00N 54°07' W 004°27'816.5
2019-Aug-18 05:30N 54°02' W 004°39'2813.9
2019-Aug-18 03:31N 54°23' W 005°09'016.8
2019-Aug-18 03:30N 54°23' W 005°09'815.7
2019-Aug-18 03:00N 54°30' W 005°16'815.2
2019-Aug-18 02:30N 54°37' W 005°22'714.6
2019-Aug-18 02:00N 54°43' W 005°30'715.0
2019-Aug-18 01:30N 54°42' W 005°42'815.4
2019-Aug-18 01:00N 54°38' W 005°53'1 2.4
2019-Aug-18 00:30N 54°37' W 005°55'0 0.0
2019-Aug-18 00:00N 54°37' W 005°55'1 1.5
2019-Aug-17 23:30N 54°37' W 005°54'612.8
2019-Aug-17 23:00N 54°42' W 005°46'816.2
2019-Aug-17 22:30N 54°43' W 005°32'714.4
2019-Aug-17 22:00N 54°37' W 005°24'815.7
2019-Aug-17 21:30N 54°30' W 005°17'815.8
2019-Aug-17 21:00N 54°23' W 005°11'816.2
2019-Aug-17 20:30N 54°16' W 005°04'1716.1
2019-Aug-17 19:25N 54°02' W 004°47'615.0
2019-Aug-17 19:00N 54°03' W 004°37'814.2
2019-Aug-17 18:26N 54°09' W 004°28'0 0.1
2019-Aug-17 16:36N 54°09' W 004°28'1 8.2
2019-Aug-17 16:30N 54°09' W 004°27'917.4
2019-Aug-17 16:00N 54°06' W 004°13'918.0
2019-Aug-17 15:30N 54°03' W 003°59'917.7
2019-Aug-17 15:00N 53°59' W 003°45'1017.8
2019-Aug-17 14:26N 53°56' W 003°29'817.6
2019-Aug-17 14:00N 53°56' W 003°16'817.4
2019-Aug-17 13:31N 53°58' W 003°02'6 7.6
2019-Aug-17 12:45N 54°02' W 002°55'0 0.0
2019-Aug-17 10:21N 54°02' W 002°55'3 8.2
2019-Aug-17 10:01N 54°00' W 002°59'1019.8
2019-Aug-17 09:31N 53°55' W 003°13'1019.1
2019-Aug-17 09:01N 53°56' W 003°30'918.5
2019-Aug-17 08:30N 53°59' W 003°45'1018.3
2019-Aug-17 07:59N 54°02' W 003°60'818.1
2019-Aug-17 07:31N 54°05' W 004°13'917.6
2019-Aug-17 06:59N 54°09' W 004°28'0 0.1
2019-Aug-17 04:48N 54°09' W 004°28'3 9.9
2019-Aug-17 04:30N 54°08' W 004°23'917.1
2019-Aug-17 04:00N 54°05' W 004°10'917.4
2019-Aug-17 03:30N 54°01' W 003°56'1017.7
2019-Aug-17 02:56N 53°58' W 003°40'817.8
2019-Aug-17 02:30N 53°56' W 003°27'918.0
2019-Aug-17 02:01N 53°56' W 003°13'918.1
2019-Aug-17 01:31N 54°00' W 002°59'3 2.1
2019-Aug-17 00:01N 54°02' W 002°55'0 0.0
2019-Aug-16 22:27N 54°02' W 002°55'714.7
2019-Aug-16 22:00N 53°58' W 003°03'1019.6
2019-Aug-16 21:31N 53°55' W 003°19'918.8
2019-Aug-16 21:00N 53°57' W 003°35'918.6
2019-Aug-16 20:30N 54°00' W 003°50'918.3
2019-Aug-16 20:00N 54°04' W 004°04'918.0
2019-Aug-16 19:31N 54°07' W 004°18'6 8.8
2019-Aug-16 18:49N 54°09' W 004°28'0 0.0
2019-Aug-16 17:02N 54°09' W 004°28'0 0.8
2019-Aug-16 17:00N 54°09' W 004°28'815.5
2019-Aug-16 16:30N 54°07' W 004°15'918.1
2019-Aug-16 16:00N 54°03' W 004°01'918.0
2019-Aug-16 15:30N 53°60' W 003°47'918.0
2019-Aug-16 15:00N 53°56' W 003°33'1018.5
2019-Aug-16 14:28N 53°56' W 003°16'918.8
2019-Aug-16 14:00N 53°58' W 003°02'6 4.0
2019-Aug-16 12:35N 54°02' W 002°55'0 0.0
2019-Aug-16 12:11N 54°02' W 002°55'0 0.0
2019-Aug-16 11:05N 54°02' W 002°55'0 0.5
2019-Aug-16 10:58N 54°02' W 002°55'714.4
2019-Aug-16 10:30N 53°58' W 003°04'918.4
2019-Aug-16 10:00N 53°55' W 003°19'917.8
2019-Aug-16 09:30N 53°57' W 003°34'917.6
2019-Aug-16 09:00N 53°60' W 003°48'917.6
2019-Aug-16 08:30N 54°03' W 004°02'917.2
2019-Aug-16 08:00N 54°06' W 004°15'816.1
2019-Aug-16 07:30N 54°09' W 004°28'0 0.0
2019-Aug-16 05:05N 54°09' W 004°28'0 0.1
2019-Aug-16 04:43N 54°09' W 004°28'311.9
2019-Aug-16 04:30N 54°08' W 004°24'917.8
2019-Aug-16 04:00N 54°05' W 004°10'918.2
2019-Aug-16 03:30N 54°02' W 003°56'918.0
2019-Aug-16 03:00N 53°59' W 003°41'918.0
2019-Aug-16 02:30N 53°56' W 003°27'918.1
2019-Aug-16 02:00N 53°56' W 003°11'919.0
2019-Aug-16 01:31N 54°01' W 002°58'2 3.2
2019-Aug-16 00:53N 54°02' W 002°55'0 0.0
2019-Aug-15 23:08N 54°02' W 002°55'0 0.0
2019-Aug-15 22:30N 54°02' W 002°55'714.6
2019-Aug-15 22:00N 53°57' W 003°04'1019.3
2019-Aug-15 21:31N 53°55' W 003°20'918.6
2019-Aug-15 21:00N 53°57' W 003°36'1018.4
2019-Aug-15 20:29N 54°01' W 003°51'918.4
2019-Aug-15 20:00N 54°04' W 004°05'917.9
2019-Aug-15 19:31N 54°07' W 004°19'6 2.3
2019-Aug-15 17:03N 54°09' W 004°28'0 8.9
2019-Aug-15 17:01N 54°09' W 004°28'917.0
2019-Aug-15 16:30N 54°06' W 004°14'917.7
2019-Aug-15 16:00N 54°03' W 003°60'917.7
2019-Aug-15 15:30N 53°59' W 003°46'1117.4
2019-Aug-15 14:52N 53°56' W 003°28'718.1
2019-Aug-15 14:30N 53°56' W 003°17'918.3
2019-Aug-15 14:00N 53°58' W 003°02'610.7
2019-Aug-15 13:28N 54°02' W 002°55'0 0.0
2019-Aug-15 12:34N 54°02' W 002°55'0 0.0
2019-Aug-15 12:28N 54°02' W 002°55'0 0.0
2019-Aug-15 10:52N 54°02' W 002°55'410.8
2019-Aug-15 10:30N 53°59' W 002°60'918.8
2019-Aug-15 10:00N 53°55' W 003°14'918.4
2019-Aug-15 09:30N 53°56' W 003°30'918.4
2019-Aug-15 09:00N 53°59' W 003°44'918.4
2019-Aug-15 08:30N 54°03' W 003°59'918.6
2019-Aug-15 08:00N 54°06' W 004°14'917.7
2019-Aug-15 07:30N 54°09' W 004°28'0 0.3
2019-Aug-15 06:43N 54°09' W 004°28'0 0.0
2019-Aug-15 04:49N 54°09' W 004°28'1 2.3
2019-Aug-15 04:30N 54°09' W 004°27'816.4
2019-Aug-15 04:00N 54°06' W 004°14'816.6
2019-Aug-15 03:30N 54°03' W 004°01'816.9
2019-Aug-15 03:00N 53°60' W 003°47'816.9
2019-Aug-15 02:30N 53°57' W 003°34'816.9
2019-Aug-15 02:01N 53°56' W 003°20'917.5
2019-Aug-15 01:31N 53°57' W 003°05'8 4.6
2019-Aug-14 23:51N 54°02' W 002°55'0 0.0
2019-Aug-14 23:12N 54°02' W 002°55'0 0.0
2019-Aug-14 21:50N 54°02' W 002°55'413.3
2019-Aug-14 21:30N 53°59' W 003°00'1019.9
2019-Aug-14 21:00N 53°55' W 003°16'1019.2
2019-Aug-14 20:30N 53°56' W 003°32'1018.9
2019-Aug-14 20:00N 53°60' W 003°47'918.7
2019-Aug-14 19:30N 54°03' W 004°02'918.5
2019-Aug-14 19:00N 54°06' W 004°16'714.6
2019-Aug-14 18:30N 54°09' W 004°28'0 0.0
2019-Aug-14 17:08N 54°09' W 004°28'0 0.7
2019-Aug-14 17:00N 54°09' W 004°28'714.4
2019-Aug-14 16:30N 54°07' W 004°16'918.0
2019-Aug-14 16:00N 54°04' W 004°02'918.3
2019-Aug-14 15:30N 54°00' W 003°48'1018.3
2019-Aug-14 14:58N 53°56' W 003°32'818.3
2019-Aug-14 14:31N 53°56' W 003°18'918.8
2019-Aug-14 14:01N 53°58' W 003°03'6 7.7
2019-Aug-14 13:13N 54°02' W 002°55'0 0.0
2019-Aug-14 12:55N 54°02' W 002°55'0 0.0
2019-Aug-14 11:43N 54°02' W 002°55'0 0.0
2019-Aug-14 11:28N 54°02' W 002°55'0 0.0
2019-Aug-14 10:36N 54°02' W 002°55'0 1.5
2019-Aug-14 10:30N 54°02' W 002°55'715.1
2019-Aug-14 10:00N 53°57' W 003°05'917.8
2019-Aug-14 09:30N 53°55' W 003°20'917.2
2019-Aug-14 09:00N 53°57' W 003°34'917.3
2019-Aug-14 08:30N 54°00' W 003°48'917.6
2019-Aug-14 08:00N 54°03' W 004°02'917.5
2019-Aug-14 07:30N 54°06' W 004°16'813.7
2019-Aug-14 06:56N 54°09' W 004°28'0 0.0
2019-Aug-14 05:58N 54°09' W 004°28'  

Dump ship's entire track history